Time;durP1;ratioP1;P1;durP2;ratioP2;P2;SDS_P1;SDS_P2;PMS_P1;PMS_P2;Temp;Humidity;BMP_temperature;BMP_pressure;BME280_temperature;BME280_humidity;BME280_pressure;Samples;Min_cycle;Max_cycle;Signal;HPM_P1;HPM_P2
2022/12/19 00:03:57;;;;;;;26.00;16.90;;;;;;;-9.01;93.58;101552.08;423443;1281;143215;-69
2022/12/19 00:14:13;;;;;;;25.80;16.40;;;;;;;-9.26;93.53;101547.15;424807;1275;142849;-69
2022/12/19 00:24:20;;;;;;;29.30;18.70;;;;;;;-9.36;93.76;101540.22;422625;1275;142334;-70
2022/12/19 00:34:26;;;;;;;29.20;17.40;;;;;;;-9.34;93.95;101526.57;424198;1281;143986;-69
2022/12/19 00:44:32;;;;;;;23.00;17.60;;;;;;;-9.46;93.70;101509.88;424732;1275;143654;-69
2022/12/19 00:54:38;;;;;;;29.50;17.70;;;;;;;-9.69;93.70;101504.73;422538;1274;143641;-69
2022/12/19 01:04:44;;;;;;;35.00;22.80;;;;;;;-9.76;93.95;101504.72;422884;1282;143218;-69
2022/12/19 01:14:51;;;;;;;28.80;18.50;;;;;;;-9.85;93.88;101504.61;423504;1274;143166;-68
2022/12/19 01:24:57;;;;;;;30.30;20.70;;;;;;;-10.00;93.87;101491.16;423038;1281;143611;-69
2022/12/19 01:35:03;;;;;;;32.60;21.70;;;;;;;-10.22;93.50;101476.17;423896;1281;144462;-68
2022/12/19 01:45:35;;;;;;;33.10;21.90;;;;;;;-10.39;93.76;101463.12;423738;1281;147289;-69
2022/12/19 01:55:53;;;;;;;29.90;21.30;;;;;;;-10.54;93.85;101455.43;422536;1274;144501;-69
2022/12/19 02:06:00;;;;;;;30.00;21.20;;;;;;;-10.63;94.13;101439.23;421742;1282;145539;-69
2022/12/19 02:16:17;;;;;;;27.80;18.60;;;;;;;-10.71;94.44;101430.38;422782;1276;213526;-67
2022/12/19 02:26:47;;;;;;;29.30;19.90;;;;;;;-10.82;94.20;101416.77;425993;1281;146274;-69
2022/12/19 02:36:56;;;;;;;25.70;17.70;;;;;;;-10.88;94.61;101407.63;422514;1282;143632;-69
2022/12/19 02:47:05;;;;;;;26.80;18.20;;;;;;;-10.97;94.45;101398.52;423058;1282;143633;-68
2022/12/19 02:57:19;;;;;;;32.60;19.90;;;;;;;-11.05;94.39;101388.64;423550;1275;143661;-69
2022/12/19 03:07:36;;;;;;;25.40;18.40;;;;;;;-11.11;94.35;101382.23;424630;1274;197986;-69
2022/12/19 03:17:42;;;;;;;27.60;17.70;;;;;;;-11.22;94.30;101372.36;424839;1275;142888;-69
2022/12/19 03:27:50;;;;;;;34.10;19.50;;;;;;;-11.31;94.30;101372.21;422206;1274;143461;-69
2022/12/19 03:38:01;;;;;;;27.90;19.60;;;;;;;-11.37;94.13;101387.27;424142;1277;144506;-68
2022/12/19 03:48:11;;;;;;;29.10;18.90;;;;;;;-11.51;94.06;101384.52;422164;1275;142880;-69
2022/12/19 03:58:24;;;;;;;27.80;20.90;;;;;;;-11.61;94.01;101378.20;422955;1279;144518;-69
2022/12/19 04:08:31;;;;;;;30.30;21.80;;;;;;;-11.69;93.89;101366.11;423380;1274;146303;-69
2022/12/19 04:18:41;;;;;;;28.70;21.00;;;;;;;-11.76;93.88;101372.13;422854;1281;144359;-69
2022/12/19 04:28:50;;;;;;;34.20;22.50;;;;;;;-11.88;93.58;101363.20;423040;1274;144918;-68
2022/12/19 04:38:56;;;;;;;30.70;21.70;;;;;;;-12.00;93.47;101351.27;422391;1282;142666;-69
2022/12/19 04:49:02;;;;;;;32.90;21.30;;;;;;;-12.11;93.72;101329.23;422508;1275;213336;-70
2022/12/19 04:59:07;;;;;;;35.00;23.50;;;;;;;-12.13;93.59;101327.45;424390;1274;144255;-69
2022/12/19 05:09:13;;;;;;;33.10;22.30;;;;;;;-12.21;93.51;101309.09;424121;1281;143761;-69
2022/12/19 05:19:19;;;;;;;38.50;24.30;;;;;;;-12.28;93.49;101308.03;423734;1275;143388;-68
2022/12/19 05:29:25;;;;;;;39.00;25.60;;;;;;;-12.33;93.34;101307.08;423254;1275;144831;-68
2022/12/19 05:39:31;;;;;;;37.50;23.60;;;;;;;-12.36;93.44;101302.98;422456;1281;143577;-69
2022/12/19 05:49:39;;;;;;;40.30;26.00;;;;;;;-12.40;93.28;101287.95;422486;1281;144600;-71
2022/12/19 05:59:46;;;;;;;37.10;24.20;;;;;;;-12.40;93.57;101285.41;423228;1278;143068;-69
2022/12/19 06:09:51;;;;;;;43.70;27.80;;;;;;;-12.42;93.55;101282.43;422656;1282;143004;-69
2022/12/19 06:19:57;;;;;;;46.70;25.50;;;;;;;-12.43;93.51;101268.54;423762;1274;145032;-70
2022/12/19 06:30:03;;;;;;;41.60;27.20;;;;;;;-12.43;93.45;101267.34;422831;1275;155600;-70
2022/12/19 06:42:21;;;;;;;42.70;28.50;;;;;;;-12.40;93.31;101269.39;424996;1278;143490;-70
2022/12/19 06:50:38;;;;;;;40.80;24.10;;;;;;;-12.32;93.51;101263.75;436475;1281;143366;-68
2022/12/19 07:00:44;;;;;;;39.70;27.20;;;;;;;-12.18;93.25;101258.11;435658;1274;143745;-70
2022/12/19 07:10:49;;;;;;;43.60;27.90;;;;;;;-11.98;93.11;101251.20;435701;1280;144982;-68
2022/12/19 07:20:56;;;;;;;40.00;27.80;;;;;;;-11.67;93.00;101243.38;436369;1280;147065;-69
2022/12/19 07:31:02;;;;;;;40.30;26.60;;;;;;;-11.38;92.86;101248.77;435890;1283;143703;-68
2022/12/19 07:41:08;;;;;;;45.00;26.70;;;;;;;-11.12;92.52;101256.86;436323;1282;144075;-68
2022/12/19 07:51:14;;;;;;;42.10;27.50;;;;;;;-10.66;92.10;101256.05;435574;1284;144677;-69
2022/12/19 08:01:20;;;;;;;34.60;21.70;;;;;;;-8.77;91.83;101249.46;436351;1277;143433;-69
2022/12/19 08:11:28;;;;;;;35.50;23.40;;;;;;;-6.14;89.76;101242.73;436389;1283;142951;-70
2022/12/19 08:21:34;;;;;;;32.10;23.20;;;;;;;-4.02;87.04;101227.70;424249;1283;144294;-70
2022/12/19 08:31:39;;;;;;;34.90;24.50;;;;;;;-3.05;84.25;101219.59;436461;1288;142226;-70
2022/12/19 08:41:45;;;;;;;38.10;25.00;;;;;;;-2.85;82.07;101207.06;436415;1283;142221;-69
2022/12/19 08:51:51;;;;;;;35.10;23.70;;;;;;;-2.76;81.10;101194.02;435701;1285;143389;-70
2022/12/19 09:01:56;;;;;;;34.40;23.00;;;;;;;-3.29;79.95;101197.74;430223;1282;141360;-70
2022/12/19 09:12:03;;;;;;;34.10;24.40;;;;;;;-2.50;79.78;101184.25;426669;1282;141767;-72
2022/12/19 09:22:09;;;;;;;34.70;23.80;;;;;;;-0.86;77.02;101168.74;436374;1288;142607;-72
2022/12/19 09:32:14;;;;;;;31.40;21.50;;;;;;;-2.15;75.21;101152.00;433212;1274;143265;-70
2022/12/19 09:42:38;;;;;;;35.40;21.70;;;;;;;-4.39;76.70;101128.04;423020;1281;143476;-70
2022/12/19 09:52:55;;;;;;;35.60;22.10;;;;;;;-5.82;78.00;101100.81;436729;1287;142094;-70
2022/12/19 10:03:05;;;;;;;33.40;23.70;;;;;;;-6.31;79.37;101083.13;435734;1282;142590;-71
2022/12/19 10:13:20;;;;;;;36.10;24.50;;;;;;;-6.66;80.17;101071.72;436420;1284;142554;-70
2022/12/19 10:23:49;;;;;;;40.90;26.80;;;;;;;-6.91;80.47;101049.84;434293;1282;146565;-70
2022/12/19 10:34:02;;;;;;;34.80;22.70;;;;;;;-7.01;80.99;101046.46;433009;1289;142494;-69
2022/12/19 10:44:09;;;;;;;32.70;22.30;;;;;;;-6.98;81.47;101023.05;433577;1281;143202;-70
2022/12/19 10:54:16;;;;;;;38.30;24.30;;;;;;;-6.94;81.61;101006.34;422491;1282;143132;-70
2022/12/19 11:04:33;;;;;;;34.90;21.60;;;;;;;-6.91;81.81;100977.30;423294;1286;142624;-71
2022/12/19 11:14:42;;;;;;;37.70;20.70;;;;;;;-6.77;82.22;100955.92;423106;1281;142493;-70
2022/12/19 11:25:18;;;;;;;34.90;21.90;;;;;;;-6.45;82.34;100927.66;436185;1285;142894;-69
2022/12/19 11:35:50;;;;;;;35.00;22.40;;;;;;;-6.17;81.99;100919.70;430190;1271;142164;-71
2022/12/19 11:46:04;;;;;;;29.00;17.70;;;;;;;-5.85;82.11;100899.83;435885;1280;143236;-69
2022/12/19 11:56:13;;;;;;;27.60;18.00;;;;;;;-5.33;82.00;100876.61;436529;1280;143319;-70
2022/12/19 12:06:23;;;;;;;29.10;15.50;;;;;;;-4.84;81.63;100868.23;435567;1280;142743;-69
2022/12/19 12:16:44;;;;;;;25.80;16.30;;;;;;;-4.70;80.90;100857.55;436357;1284;142985;-70
2022/12/19 12:27:27;;;;;;;28.40;18.20;;;;;;;-4.80;80.45;100843.20;435570;1290;141852;-68
2022/12/19 12:38:05;;;;;;;25.10;16.20;;;;;;;-4.85;80.50;100832.33;432977;1290;143566;-70
2022/12/19 12:48:36;;;;;;;21.10;15.10;;;;;;;-4.90;80.18;100825.06;435564;1285;192476;-70
2022/12/19 12:59:00;;;;;;;27.20;16.50;;;;;;;-5.05;79.87;100815.55;436366;1282;144500;-69
2022/12/19 13:09:24;;;;;;;27.60;17.80;;;;;;;-5.23;79.80;100814.52;435481;1284;143858;-70
2022/12/19 13:19:31;;;;;;;32.90;20.90;;;;;;;-5.42;79.64;100818.22;436221;1283;175361;-70
2022/12/19 13:29:53;;;;;;;34.40;21.50;;;;;;;-5.72;79.65;100802.56;428854;1285;144115;-70
2022/12/19 13:40:11;;;;;;;32.80;21.90;;;;;;;-5.96;79.88;100776.80;434591;1283;142893;-70
2022/12/19 13:50:29;;;;;;;35.60;21.90;;;;;;;-6.18;80.29;100765.24;424056;1282;201826;-71
2022/12/19 14:00:41;;;;;;;33.40;20.60;;;;;;;-6.38;80.46;100737.50;435597;1282;143016;-68
2022/12/19 14:10:49;;;;;;;32.80;21.20;;;;;;;-6.55;80.85;100729.61;436367;1282;143762;-68
2022/12/19 14:21:21;;;;;;;37.10;24.70;;;;;;;-6.66;81.31;100728.84;435647;1284;146130;-69
2022/12/19 14:31:47;;;;;;;37.90;22.80;;;;;;;-6.67;81.86;100709.55;436405;1275;142213;-73
2022/12/19 14:53:15;;;;;;;38.30;25.10;;;;;;;-6.43;82.37;100683.52;421842;1275;142764;-72
2022/12/19 15:03:50;;;;;;;39.10;24.70;;;;;;;-6.50;82.48;100667.52;435583;1278;143104;-73
2022/12/19 15:14:23;;;;;;;40.40;25.70;;;;;;;-6.61;82.64;100650.25;428609;1275;144070;-73
2022/12/19 15:24:49;;;;;;;39.50;26.00;;;;;;;-6.67;83.14;100657.79;430196;1283;142737;-72
2022/12/19 15:34:55;;;;;;;36.90;23.80;;;;;;;-6.54;83.86;100648.36;426506;1275;142684;-74
2022/12/19 15:45:01;;;;;;;42.70;26.40;;;;;;;-6.31;84.14;100635.06;422600;1285;141945;-72
2022/12/19 15:55:12;;;;;;;40.60;26.50;;;;;;;-6.29;83.92;100638.70;423450;1275;143099;-73
2022/12/19 16:05:19;;;;;;;41.10;26.90;;;;;;;-6.41;84.01;100621.56;423936;1284;143420;-73
2022/12/19 16:15:28;;;;;;;41.30;26.80;;;;;;;-6.54;84.36;100614.11;426010;1275;143001;-73
2022/12/19 16:25:36;;;;;;;42.20;28.80;;;;;;;-6.60;84.56;100598.65;425229;1274;143148;-73
2022/12/19 16:35:42;;;;;;;52.30;31.60;;;;;;;-6.70;84.98;100587.03;428430;1289;142909;-73
2022/12/19 16:46:15;;;;;;;45.70;30.30;;;;;;;-6.58;85.27;100573.66;435782;1282;210928;-71
2022/12/19 16:56:28;;;;;;;46.60;30.30;;;;;;;-6.35;85.32;100575.35;436207;1282;142921;-73
2022/12/19 17:06:33;;;;;;;44.30;28.40;;;;;;;-6.22;85.30;100555.99;435503;1275;144224;-72
2022/12/19 17:16:39;;;;;;;46.00;28.40;;;;;;;-6.09;85.55;100544.16;431813;1284;142652;-73
2022/12/19 17:26:46;;;;;;;45.80;30.90;;;;;;;-5.99;85.46;100529.14;435275;1283;142264;-74
2022/12/19 17:36:52;;;;;;;44.50;30.50;;;;;;;-5.91;85.39;100512.58;435440;1277;142521;-74
2022/12/19 17:46:58;;;;;;;53.20;30.40;;;;;;;-5.82;85.56;100521.95;422833;1275;143992;-74
2022/12/19 17:57:04;;;;;;;52.90;33.80;;;;;;;-5.76;85.59;100495.45;421830;1282;142668;-74
2022/12/19 18:07:15;;;;;;;48.20;32.40;;;;;;;-5.69;85.98;100467.41;422675;1281;142554;-74
2022/12/19 18:17:25;;;;;;;51.80;33.90;;;;;;;-5.66;85.88;100459.11;424697;1275;143409;-73
2022/12/19 18:27:31;;;;;;;48.40;30.50;;;;;;;-5.59;86.08;100449.48;430435;1275;145804;-74
2022/12/19 18:37:36;;;;;;;49.40;32.10;;;;;;;-5.47;86.38;100444.55;422665;1275;144779;-74
2022/12/19 18:47:41;;;;;;;;;;;;;;;-5.31;86.64;100454.85;422699;1275;142470;-74
2022/12/19 18:57:53;;;;;;;51.50;34.40;;;;;;;-5.12;86.92;100441.48;436051;1281;174622;-75
2022/12/19 19:08:01;;;;;;;54.20;32.10;;;;;;;-4.88;87.16;100434.27;436690;1281;143656;-73
2022/12/19 19:18:09;;;;;;;55.80;34.70;;;;;;;-4.63;87.39;100423.13;435914;1278;148463;-74
2022/12/19 19:28:15;;;;;;;60.30;35.40;;;;;;;-4.41;87.51;100407.66;429725;1281;143921;-74
2022/12/19 19:38:20;;;;;;;;;;;;;;;-4.20;87.83;100383.40;422923;1275;143682;-75
2022/12/19 19:48:25;;;;;;;52.60;31.20;;;;;;;-4.00;88.22;100374.67;422454;1281;128696;-75
2022/12/19 19:58:31;;;;;;;42.30;25.90;;;;;;;-3.77;88.40;100379.48;422836;1278;143588;-76
2022/12/19 20:08:38;;;;;;;35.40;23.40;;;;;;;-3.48;88.72;100374.36;425769;1277;143152;-76
2022/12/19 20:18:48;;;;;;;38.10;23.60;;;;;;;-3.18;88.70;100357.73;423187;1275;143766;-77
2022/12/19 20:28:55;;;;;;;33.10;20.20;;;;;;;-2.89;88.55;100347.77;424188;1274;189174;-78
2022/12/19 20:39:01;;;;;;;34.30;19.60;;;;;;;-2.66;88.79;100346.80;423526;1278;143952;-77
2022/12/19 20:49:07;;;;;;;29.00;19.50;;;;;;;-2.51;88.64;100334.48;424401;1275;141989;-77
2022/12/19 20:59:13;;;;;;;30.20;17.70;;;;;;;-2.38;88.91;100327.30;424890;1274;142875;-79
2022/12/19 21:09:18;;;;;;;30.20;18.30;;;;;;;-2.26;89.17;100322.69;423583;1275;141447;-78
2022/12/19 21:19:24;;;;;;;24.90;16.80;;;;;;;-2.17;89.07;100315.66;423945;1274;142011;-80
2022/12/19 21:29:30;;;;;;;25.00;17.60;;;;;;;-2.06;89.26;100314.62;423973;1277;142558;-78
2022/12/19 21:39:36;;;;;;;32.00;18.50;;;;;;;-1.94;89.29;100302.95;423201;1275;142979;-77
2022/12/19 21:49:42;;;;;;;29.20;16.00;;;;;;;-1.82;89.31;100292.63;423995;1275;146162;-78
2022/12/19 21:59:48;;;;;;;24.20;14.40;;;;;;;-1.68;89.11;100275.42;423998;1274;142335;-76
2022/12/19 22:09:54;;;;;;;23.40;15.20;;;;;;;-1.52;89.16;100267.14;423556;1275;142472;-77
2022/12/19 22:20:03;;;;;;;25.00;14.10;;;;;;;-1.39;89.04;100267.10;424332;1275;142522;-77
2022/12/19 22:30:14;;;;;;;25.80;15.30;;;;;;;-1.31;89.34;100261.55;423981;1274;142655;-76
2022/12/19 22:40:20;;;;;;;24.10;15.30;;;;;;;-1.24;89.33;100246.75;424660;1278;144299;-77
2022/12/19 22:50:26;;;;;;;23.00;13.90;;;;;;;-1.18;89.14;100238.83;424030;1279;142203;-73
2022/12/19 23:00:32;;;;;;;25.80;14.80;;;;;;;-1.13;89.02;100231.59;423164;1274;143326;-73
2022/12/19 23:10:38;;;;;;;21.10;15.00;;;;;;;-1.09;89.03;100222.11;423970;1274;142502;-73
2022/12/19 23:20:45;;;;;;;23.90;14.10;;;;;;;-1.09;89.09;100215.08;424182;1275;142917;-72
2022/12/19 23:30:51;;;;;;;17.50;11.20;;;;;;;-1.05;89.06;100215.56;423290;1278;144093;-72
2022/12/19 23:41:01;;;;;;;22.90;15.60;;;;;;;-1.02;89.34;100206.95;429982;1274;141395;-72
2022/12/19 23:51:10;;;;;;;21.70;13.30;;;;;;;-0.98;89.41;100204.50;432391;1274;143484;-72
